Guilderland Center, New York
Current Conditions -  °F | °C
As of 12:51 PM on Friday 19 Dec 2014 (Local Time) from KALB Reporting Station
Overcast Overcast  
Wind Chill: 18°   Ceiling: 2600
Heat Index: 30°   Visibility: 10mi
Dew Point: 20°   Wind: 17mph
Humidity: 66%   Direction: 300°WNW
Pressure: 30.06"   Gusts: 24mph
Location:  42.7°N, 73.97°W
Report Text: KALB 191751Z 30015G21KT 10SM BKN026 OVC033 M01/M07 A3006 RMK AO2 SLP181 4/001 T10111067 11006 21011 55002
Loading
Personal Weather Stations






























Interactive Weather Map New forecast layout! Learn more

10-Day Weather Forecast

Advertisements
Track Severe Weather on mobile